Archival Weather

Chicago O'Hare International

Chicago, Illinois (KORD)

Report from: Friday, May 26, 2023 8:51 PM CDT
Current time: Wednesday, May 29, 2024 4:13 AM CDT

Current weather – Weather history – Daily summaries
Weather forecast

Temperature15.6°C (60.1°F)
Dew point-3.9°C (25.0°F)
Winds 7 kts (3.6 m/s, 8.1 mph) North-Northeast (30°)
Visibility10 mi. (16.1 km)
Clouds Scattered clouds 25,000 ft. (7,620 m)
Ceiling: Broken clouds 30,000 ft. (9,144 m)
Altimeter30.27 in.Hg (1025 mB)
Relative humidity26 %
Density altitude-251 ft. (-77 m)
Sea-level pressure102.5 kPa (1025 mB, 30.27 in.Hg)
Remarks Automated weather observing station with precipitation discriminator
Flight conditions Visual Meteorological Conditions
Raw dataKORD 270151Z 03007KT 10SM SCT250 BKN300 16/M04 A3027 RMK AO2 SLP251 T01561039
An error has occurred. This application may no longer respond until reloaded. Reload 🗙